Time;durP1;ratioP1;P1;durP2;ratioP2;P2;SDS_P1;SDS_P2;PMS_P1;PMS_P2;Temp;Humidity;BMP_temperature;BMP_pressure;BME280_temperature;BME280_humidity;BME280_pressure;Samples;Min_cycle;Max_cycle;Signal;HPM_P1;HPM_P2
2023/05/14 00:03:35;;;;;;;5.72;5.10;;;;;;;;;;10443836;28;20828;-76
2023/05/14 00:08:36;;;;;;;5.93;3.92;;;;;;;;;;10490400;28;20232;-76
2023/05/14 00:13:37;;;;;;;5.45;4.35;;;;;;;;;;10485348;28;20221;-78
2023/05/14 00:18:38;;;;;;;4.55;4.20;;;;;;;;;;10493560;28;20221;-77
2023/05/14 00:23:39;;;;;;;4.97;4.40;;;;;;;;;;10455666;28;20307;-76
2023/05/14 00:28:40;;;;;;;15.82;4.05;;;;;;;;;;10482418;28;20718;-78
2023/05/14 00:33:41;;;;;;;3.85;3.38;;;;;;;;;;10477778;28;20217;-77
2023/05/14 00:38:42;;;;;;;6.43;4.60;;;;;;;;;;10466244;28;20326;-78
2023/05/14 00:43:43;;;;;;;4.32;4.03;;;;;;;;;;10462707;28;20691;-77
2023/05/14 00:48:44;;;;;;;4.22;3.92;;;;;;;;;;10457553;28;20227;-76
2023/05/14 00:53:46;;;;;;;3.35;3.15;;;;;;;;;;10467982;28;20284;-76
2023/05/14 00:58:47;;;;;;;4.07;3.85;;;;;;;;;;10468781;28;20404;-78
2023/05/14 01:03:48;;;;;;;4.18;3.92;;;;;;;;;;10473700;28;20248;-78
2023/05/14 01:09:08;;;;;;;4.80;3.60;;;;;;;;;;10490935;28;20221;-77
2023/05/14 01:14:27;;;;;;;3.50;3.40;;;;;;;;;;10486758;28;20221;-74
2023/05/14 01:19:31;;;;;;;3.78;3.58;;;;;;;;;;10469067;28;20221;-77
2023/05/14 01:24:32;;;;;;;3.25;3.13;;;;;;;;;;10469311;28;20209;-76
2023/05/14 01:29:36;;;;;;;3.97;3.78;;;;;;;;;;10464999;28;20221;-77
2023/05/14 01:34:39;;;;;;;3.72;3.53;;;;;;;;;;10472809;28;20220;-77
2023/05/14 01:39:40;;;;;;;4.40;3.85;;;;;;;;;;10462812;28;20278;-76
2023/05/14 01:44:41;;;;;;;4.10;3.70;;;;;;;;;;10486676;28;20213;-77
2023/05/14 01:49:42;;;;;;;6.00;4.43;;;;;;;;;;10457886;28;20231;-77
2023/05/14 01:54:43;;;;;;;4.60;4.38;;;;;;;;;;10448873;28;20227;-77
2023/05/14 01:59:45;;;;;;;4.93;4.53;;;;;;;;;;10455232;28;20222;-76
2023/05/14 02:04:46;;;;;;;5.03;4.55;;;;;;;;;;10470431;28;20218;-77
2023/05/14 02:09:47;;;;;;;4.47;4.28;;;;;;;;;;10473323;28;20228;-77
2023/05/14 02:14:48;;;;;;;4.47;4.28;;;;;;;;;;10458162;28;20775;-76
2023/05/14 02:19:49;;;;;;;5.18;4.82;;;;;;;;;;10461764;28;20226;-76
2023/05/14 02:24:50;;;;;;;4.97;4.57;;;;;;;;;;10455475;28;20209;-78
2023/05/14 02:29:52;;;;;;;4.80;4.40;;;;;;;;;;10458554;28;20683;-77
2023/05/14 02:34:53;;;;;;;4.13;3.83;;;;;;;;;;10465034;28;20704;-77
2023/05/14 02:39:54;;;;;;;4.68;4.45;;;;;;;;;;10461054;28;20334;-79
2023/05/14 02:44:57;;;;;;;6.50;5.00;;;;;;;;;;10481657;28;20245;-76
2023/05/14 02:49:58;;;;;;;4.85;4.55;;;;;;;;;;10465019;28;20886;-77
2023/05/14 02:54:58;;;;;;;6.20;5.65;;;;;;;;;;10478525;28;20239;-77
2023/05/14 02:59:59;;;;;;;4.70;4.32;;;;;;;;;;10480592;28;20222;-76
2023/05/14 03:05:02;;;;;;;5.00;4.68;;;;;;;;;;10482098;28;20214;-79
2023/05/14 03:10:03;;;;;;;5.22;4.85;;;;;;;;;;10479104;28;20217;-77
2023/05/14 03:15:04;;;;;;;5.13;4.80;;;;;;;;;;10445615;28;20209;-77
2023/05/14 03:20:05;;;;;;;7.10;4.85;;;;;;;;;;10475604;28;20256;-77
2023/05/14 03:25:07;;;;;;;5.32;4.93;;;;;;;;;;10473617;28;20194;-77
2023/05/14 03:30:10;;;;;;;5.05;4.70;;;;;;;;;;10481692;28;20723;-77
2023/05/14 03:35:11;;;;;;;5.03;4.60;;;;;;;;;;10495238;28;20210;-78
2023/05/14 03:40:12;;;;;;;5.50;5.00;;;;;;;;;;10488734;28;20301;-78
2023/05/14 03:45:13;;;;;;;5.68;5.18;;;;;;;;;;10462418;28;20247;-75
2023/05/14 03:50:14;;;;;;;5.97;5.05;;;;;;;;;;10441065;28;20612;-78
2023/05/14 03:55:15;;;;;;;8.82;5.00;;;;;;;;;;10464240;28;20210;-78
2023/05/14 04:00:17;;;;;;;5.68;5.28;;;;;;;;;;10464482;28;20852;-79
2023/05/14 04:05:18;;;;;;;6.07;5.57;;;;;;;;;;10462455;28;20206;-79
2023/05/14 04:10:19;;;;;;;5.68;5.10;;;;;;;;;;10466894;28;20703;-78
2023/05/14 04:15:21;;;;;;;6.15;5.65;;;;;;;;;;10449475;28;20495;-78
2023/05/14 04:20:22;;;;;;;5.38;4.97;;;;;;;;;;10464667;28;20298;-79
2023/05/14 04:25:24;;;;;;;4.82;4.53;;;;;;;;;;10469988;28;20205;-77
2023/05/14 04:30:25;;;;;;;6.03;5.63;;;;;;;;;;10455928;28;20217;-77
2023/05/14 04:35:26;;;;;;;5.35;4.85;;;;;;;;;;10462168;28;20257;-75
2023/05/14 04:40:27;;;;;;;6.20;5.70;;;;;;;;;;10485989;28;20222;-77
2023/05/14 04:45:28;;;;;;;5.18;4.82;;;;;;;;;;10484240;28;20272;-77
2023/05/14 04:50:29;;;;;;;5.88;5.47;;;;;;;;;;10489393;28;20959;-77
2023/05/14 04:55:30;;;;;;;5.65;5.20;;;;;;;;;;10490211;28;20248;-80
2023/05/14 05:00:32;;;;;;;6.80;5.18;;;;;;;;;;10488176;28;20235;-77
2023/05/14 05:05:34;;;;;;;5.63;5.20;;;;;;;;;;10489099;28;20221;-77
2023/05/14 05:10:35;;;;;;;6.20;5.80;;;;;;;;;;10475736;28;20222;-75
2023/05/14 05:15:36;;;;;;;5.70;5.20;;;;;;;;;;10467009;28;20217;-78
2023/05/14 05:20:37;;;;;;;5.88;5.38;;;;;;;;;;10483387;28;20272;-77
2023/05/14 05:25:38;;;;;;;5.55;5.07;;;;;;;;;;10468962;28;20249;-75
2023/05/14 05:30:39;;;;;;;5.35;4.97;;;;;;;;;;10488568;28;20288;-76
2023/05/14 05:35:42;;;;;;;6.93;5.40;;;;;;;;;;10469985;28;20661;-77
2023/05/14 05:40:43;;;;;;;6.97;5.72;;;;;;;;;;10462186;28;20245;-76
2023/05/14 05:45:44;;;;;;;6.43;5.78;;;;;;;;;;10473746;28;20222;-77
2023/05/14 05:50:49;;;;;;;6.05;5.53;;;;;;;;;;10480479;28;20222;-77
2023/05/14 05:55:50;;;;;;;6.30;5.68;;;;;;;;;;10480010;28;20757;-78
2023/05/14 06:00:52;;;;;;;6.18;5.78;;;;;;;;;;10468520;28;20305;-77
2023/05/14 06:05:53;;;;;;;6.40;5.25;;;;;;;;;;10486501;28;20246;-77
2023/05/14 06:10:54;;;;;;;6.15;5.55;;;;;;;;;;10484829;28;20216;-78
2023/05/14 06:15:55;;;;;;;6.47;5.97;;;;;;;;;;10486185;28;20220;-77
2023/05/14 06:20:56;;;;;;;6.55;6.03;;;;;;;;;;10497332;28;20638;-78
2023/05/14 06:25:57;;;;;;;7.57;6.20;;;;;;;;;;10470695;28;20221;-79
2023/05/14 06:30:58;;;;;;;6.65;5.13;;;;;;;;;;10454013;28;21008;-78
2023/05/14 06:36:00;;;;;;;5.65;5.20;;;;;;;;;;10458608;28;20214;-79
2023/05/14 06:41:01;;;;;;;9.32;6.28;;;;;;;;;;10495042;28;20601;-77
2023/05/14 06:46:02;;;;;;;6.38;5.88;;;;;;;;;;10473181;28;20224;-79
2023/05/14 06:51:03;;;;;;;6.28;5.68;;;;;;;;;;10483084;28;21031;-78
2023/05/14 06:56:04;;;;;;;5.47;5.18;;;;;;;;;;10454320;28;20210;-76
2023/05/14 07:01:05;;;;;;;6.43;5.93;;;;;;;;;;10483173;28;20245;-78
2023/05/14 07:06:06;;;;;;;6.72;6.20;;;;;;;;;;10449211;28;20221;-78
2023/05/14 07:11:07;;;;;;;12.85;5.80;;;;;;;;;;10471664;28;20237;-76
2023/05/14 07:16:09;;;;;;;6.28;5.68;;;;;;;;;;10451580;28;20217;-83
2023/05/14 07:21:10;;;;;;;6.70;6.10;;;;;;;;;;10480238;28;20221;-79
2023/05/14 07:26:11;;;;;;;5.82;5.40;;;;;;;;;;10493169;28;20226;-78
2023/05/14 07:31:12;;;;;;;8.23;5.93;;;;;;;;;;10478394;28;20257;-78
2023/05/14 07:36:13;;;;;;;6.75;5.95;;;;;;;;;;10476684;28;20213;-79
2023/05/14 07:41:14;;;;;;;6.38;5.90;;;;;;;;;;10455941;28;20264;-77
2023/05/14 07:46:15;;;;;;;6.85;6.10;;;;;;;;;;10458217;28;20221;-78
2023/05/14 07:51:16;;;;;;;5.55;5.25;;;;;;;;;;10409009;28;1254840;-79
2023/05/14 07:56:17;;;;;;;6.63;6.00;;;;;;;;;;10466158;28;21347;-77
2023/05/14 08:01:18;;;;;;;6.75;6.25;;;;;;;;;;10458281;28;20658;-79
2023/05/14 08:06:20;;;;;;;6.68;6.18;;;;;;;;;;10474692;28;20226;-80
2023/05/14 08:11:21;;;;;;;6.75;6.13;;;;;;;;;;10472189;28;20961;-77
2023/05/14 08:16:24;;;;;;;6.43;5.93;;;;;;;;;;10473956;28;20218;-79
2023/05/14 08:21:26;;;;;;;7.03;6.50;;;;;;;;;;10448950;28;20629;-79
2023/05/14 08:26:27;;;;;;;6.60;6.10;;;;;;;;;;10433283;28;22195;-81
2023/05/14 08:31:28;;;;;;;6.35;5.85;;;;;;;;;;10444305;28;20225;-81
2023/05/14 08:36:30;;;;;;;6.60;6.05;;;;;;;;;;10462065;28;20225;-79
2023/05/14 08:41:31;;;;;;;5.78;5.38;;;;;;;;;;10440913;28;20230;-82
2023/05/14 08:46:32;;;;;;;4.95;4.75;;;;;;;;;;10475934;28;20228;-78
2023/05/14 08:51:33;;;;;;;5.47;5.13;;;;;;;;;;10478585;28;20221;-79
2023/05/14 08:56:34;;;;;;;6.35;5.63;;;;;;;;;;10439601;28;20736;-79
2023/05/14 09:01:37;;;;;;;4.82;4.63;;;;;;;;;;10463006;28;20228;-78
2023/05/14 09:06:38;;;;;;;5.18;4.88;;;;;;;;;;10464654;28;20206;-77
2023/05/14 09:11:46;;;;;;;4.93;4.53;;;;;;;;;;10447537;28;20375;-77
2023/05/14 09:16:48;;;;;;;2.63;2.47;;;;;;;;;;10471791;28;20218;-78
2023/05/14 09:21:49;;;;;;;2.42;2.33;;;;;;;;;;10474003;28;20232;-77
2023/05/14 09:26:54;;;;;;;1.88;1.77;;;;;;;;;;10454167;28;20294;-77
2023/05/14 09:31:56;;;;;;;2.00;2.00;;;;;;;;;;10447835;28;20320;-78
2023/05/14 09:37:15;;;;;;;1.70;1.67;;;;;;;;;;10464588;28;20222;-76
2023/05/14 09:42:16;;;;;;;3.08;1.80;;;;;;;;;;10445745;28;20664;-78
2023/05/14 09:47:17;;;;;;;1.90;1.70;;;;;;;;;;10458992;28;20371;-78
2023/05/14 09:52:18;;;;;;;1.50;1.50;;;;;;;;;;10474033;28;20223;-78
2023/05/14 09:57:20;;;;;;;2.60;1.90;;;;;;;;;;10449676;28;20233;-78
2023/05/14 10:02:25;;;;;;;1.67;1.58;;;;;;;;;;10459349;28;20218;-78
2023/05/14 10:07:28;;;;;;;1.60;1.60;;;;;;;;;;10479119;28;20406;-79
2023/05/14 10:12:33;;;;;;;1.80;1.70;;;;;;;;;;10446264;28;21798;-78
2023/05/14 10:17:36;;;;;;;1.65;1.48;;;;;;;;;;10444133;28;20209;-79
2023/05/14 10:22:37;;;;;;;3.85;1.38;;;;;;;;;;10450101;28;20294;-79
2023/05/14 10:27:38;;;;;;;3.00;1.60;;;;;;;;;;10453703;28;20278;-78
2023/05/14 10:32:40;;;;;;;1.30;1.13;;;;;;;;;;10478387;28;20221;-77
2023/05/14 10:37:43;;;;;;;2.50;1.50;;;;;;;;;;10457477;28;20218;-80
2023/05/14 10:42:45;;;;;;;1.77;1.40;;;;;;;;;;10452685;28;20240;-80
2023/05/14 10:47:47;;;;;;;1.50;1.50;;;;;;;;;;10459713;28;20218;-81
2023/05/14 10:52:48;;;;;;;1.83;1.33;;;;;;;;;;10479059;28;20206;-80
2023/05/14 10:57:49;;;;;;;1.45;1.35;;;;;;;;;;10476849;28;20218;-80
2023/05/14 11:02:54;;;;;;;1.67;1.20;;;;;;;;;;10479230;28;20345;-80
2023/05/14 11:07:57;;;;;;;2.03;1.15;;;;;;;;;;10475512;28;20366;-79
2023/05/14 11:12:58;;;;;;;1.40;1.30;;;;;;;;;;10453365;28;20748;-80
2023/05/14 11:17:58;;;;;;;1.20;1.20;;;;;;;;;;10457907;28;20283;-78
2023/05/14 11:23:00;;;;;;;0.98;0.98;;;;;;;;;;10454335;28;21025;-80
2023/05/14 11:28:01;;;;;;;1.23;1.23;;;;;;;;;;10469495;28;20871;-79
2023/05/14 11:33:02;;;;;;;2.38;1.20;;;;;;;;;;10473643;28;20231;-79
2023/05/14 11:38:03;;;;;;;3.30;1.40;;;;;;;;;;10440744;28;20224;-81
2023/05/14 11:43:04;;;;;;;1.13;1.13;;;;;;;;;;10449243;28;20248;-81
2023/05/14 11:48:13;;;;;;;1.67;1.52;;;;;;;;;;10451912;28;20217;-80
2023/05/14 11:53:17;;;;;;;1.52;1.38;;;;;;;;;;10471745;28;20899;-79
2023/05/14 11:58:19;;;;;;;1.13;1.13;;;;;;;;;;10470021;28;20213;-79
2023/05/14 12:03:24;;;;;;;1.88;1.33;;;;;;;;;;10476156;28;20222;-78
2023/05/14 12:08:29;;;;;;;1.30;1.30;;;;;;;;;;10485503;28;20232;-80
2023/05/14 12:13:30;;;;;;;1.42;1.42;;;;;;;;;;10476113;28;20993;-80
2023/05/14 12:18:31;;;;;;;2.15;1.90;;;;;;;;;;10475925;28;20213;-79
2023/05/14 12:23:32;;;;;;;1.55;1.50;;;;;;;;;;10456334;28;20209;-80
2023/05/14 12:28:34;;;;;;;1.65;1.30;;;;;;;;;;10462516;28;20213;-78
2023/05/14 12:33:35;;;;;;;2.88;1.30;;;;;;;;;;10476290;28;20228;-78
2023/05/14 12:38:36;;;;;;;1.40;1.30;;;;;;;;;;10480538;28;20599;-78
2023/05/14 12:43:37;;;;;;;2.72;1.48;;;;;;;;;;10469547;28;20210;-80
2023/05/14 12:48:38;;;;;;;1.67;1.50;;;;;;;;;;10481844;28;20295;-79
2023/05/14 12:53:40;;;;;;;1.38;1.27;;;;;;;;;;10462988;28;20243;-79
2023/05/14 12:58:41;;;;;;;1.52;1.52;;;;;;;;;;10449027;28;20221;-78
2023/05/14 13:03:41;;;;;;;4.32;1.20;;;;;;;;;;10467359;28;20225;-80
2023/05/14 13:08:43;;;;;;;1.48;1.38;;;;;;;;;;10461092;28;20224;-78
2023/05/14 13:13:44;;;;;;;1.83;1.73;;;;;;;;;;10470207;28;20217;-80
2023/05/14 13:18:45;;;;;;;1.23;1.23;;;;;;;;;;10468932;28;20213;-79
2023/05/14 13:23:46;;;;;;;2.28;1.00;;;;;;;;;;10460018;28;20285;-80
2023/05/14 13:28:47;;;;;;;2.05;1.25;;;;;;;;;;10480075;28;20217;-78
2023/05/14 13:33:48;;;;;;;1.67;1.10;;;;;;;;;;10484018;28;20719;-79
2023/05/14 13:38:49;;;;;;;1.08;1.00;;;;;;;;;;10487931;28;20264;-78
2023/05/14 13:43:50;;;;;;;1.40;1.40;;;;;;;;;;10471078;28;20219;-79
2023/05/14 13:48:51;;;;;;;1.30;1.30;;;;;;;;;;10485624;28;20229;-77
2023/05/14 13:53:52;;;;;;;1.60;1.60;;;;;;;;;;10487312;28;20217;-79
2023/05/14 13:58:53;;;;;;;2.90;1.38;;;;;;;;;;10486020;28;21074;-79
2023/05/14 14:03:54;;;;;;;1.63;1.52;;;;;;;;;;10488614;28;20800;-78
2023/05/14 14:08:55;;;;;;;3.00;1.80;;;;;;;;;;10474248;28;20341;-75
2023/05/14 14:13:56;;;;;;;1.48;1.48;;;;;;;;;;10486077;28;20222;-79
2023/05/14 14:18:57;;;;;;;1.40;1.40;;;;;;;;;;10482124;28;20218;-78
2023/05/14 14:23:58;;;;;;;1.75;1.75;;;;;;;;;;10465264;28;20579;-79
2023/05/14 14:28:59;;;;;;;1.80;1.70;;;;;;;;;;10467834;28;20213;-78
2023/05/14 14:34:00;;;;;;;2.25;2.15;;;;;;;;;;10470612;28;20929;-79
2023/05/14 14:39:01;;;;;;;2.13;2.03;;;;;;;;;;10468641;28;20213;-79
2023/05/14 14:44:02;;;;;;;1.92;1.63;;;;;;;;;;10487182;28;20225;-79
2023/05/14 14:49:03;;;;;;;2.35;2.10;;;;;;;;;;10483274;28;20830;-79
2023/05/14 14:54:05;;;;;;;9.10;2.00;;;;;;;;;;10474439;28;20612;-80
2023/05/14 14:59:06;;;;;;;1.70;1.65;;;;;;;;;;10490555;28;20756;-79
2023/05/14 15:04:07;;;;;;;1.40;1.40;;;;;;;;;;10474382;28;20218;-79
2023/05/14 15:09:08;;;;;;;1.83;1.80;;;;;;;;;;10490347;28;20202;-79
2023/05/14 15:14:09;;;;;;;1.80;1.80;;;;;;;;;;10486356;28;20605;-80
2023/05/14 15:19:10;;;;;;;3.63;1.65;;;;;;;;;;10490931;28;20596;-79
2023/05/14 15:24:12;;;;;;;1.42;1.42;;;;;;;;;;10477530;28;20224;-81
2023/05/14 15:29:13;;;;;;;2.83;2.72;;;;;;;;;;10467749;28;20946;-80
2023/05/14 15:34:14;;;;;;;1.88;1.77;;;;;;;;;;10466005;28;20197;-79
2023/05/14 15:39:15;;;;;;;2.30;2.10;;;;;;;;;;10479836;28;20221;-77
2023/05/14 15:44:16;;;;;;;1.58;1.58;;;;;;;;;;10480028;28;20403;-80
2023/05/14 15:49:17;;;;;;;2.15;1.30;;;;;;;;;;10462932;28;20838;-78
2023/05/14 15:54:18;;;;;;;1.80;1.65;;;;;;;;;;10480556;28;20210;-80
2023/05/14 15:59:19;;;;;;;1.58;1.48;;;;;;;;;;10464755;28;20260;-78
2023/05/14 16:04:20;;;;;;;3.05;1.75;;;;;;;;;;10449920;28;20305;-79
2023/05/14 16:09:21;;;;;;;1.80;1.70;;;;;;;;;;10472883;28;20214;-80
2023/05/14 16:14:22;;;;;;;1.85;1.80;;;;;;;;;;10463354;28;20217;-81
2023/05/14 16:19:23;;;;;;;3.42;2.10;;;;;;;;;;10452250;28;20222;-79
2023/05/14 16:24:24;;;;;;;1.60;1.50;;;;;;;;;;10474851;28;20271;-78
2023/05/14 16:29:25;;;;;;;2.20;1.90;;;;;;;;;;10459036;28;20228;-78
2023/05/14 16:34:26;;;;;;;2.88;1.52;;;;;;;;;;10463149;28;20213;-78
2023/05/14 16:39:27;;;;;;;2.05;1.75;;;;;;;;;;10475497;28;20656;-78
2023/05/14 16:44:28;;;;;;;1.70;1.60;;;;;;;;;;10479391;28;20213;-79
2023/05/14 16:49:29;;;;;;;3.08;2.95;;;;;;;;;;10479108;28;20217;-80
2023/05/14 16:54:30;;;;;;;1.83;1.73;;;;;;;;;;10474127;28;20217;-79
2023/05/14 16:59:31;;;;;;;1.92;1.83;;;;;;;;;;10468301;28;20210;-79
2023/05/14 17:04:37;;;;;;;3.25;1.98;;;;;;;;;;10473199;28;20222;-79
2023/05/14 17:09:38;;;;;;;1.77;1.73;;;;;;;;;;10464553;28;20221;-80
2023/05/14 17:14:39;;;;;;;2.08;2.03;;;;;;;;;;10469286;28;20224;-80
2023/05/14 17:19:41;;;;;;;1.90;1.90;;;;;;;;;;10467512;28;20932;-79
2023/05/14 17:24:42;;;;;;;1.92;1.92;;;;;;;;;;10444690;28;20276;-80
2023/05/14 17:29:43;;;;;;;2.40;1.35;;;;;;;;;;10468596;28;21386;-80
2023/05/14 17:34:44;;;;;;;1.70;1.70;;;;;;;;;;10460648;28;20228;-80
2023/05/14 17:39:45;;;;;;;1.77;1.67;;;;;;;;;;10438175;28;20220;-79
2023/05/14 17:44:46;;;;;;;3.22;1.58;;;;;;;;;;10467488;28;20225;-80
2023/05/14 17:49:47;;;;;;;1.98;1.55;;;;;;;;;;10471508;28;20730;-78
2023/05/14 17:54:48;;;;;;;1.77;1.67;;;;;;;;;;10495160;28;20344;-81
2023/05/14 17:59:49;;;;;;;2.20;1.77;;;;;;;;;;10489419;28;20225;-80
2023/05/14 18:04:50;;;;;;;2.08;1.90;;;;;;;;;;10502989;28;20220;-80
2023/05/14 18:09:51;;;;;;;2.10;2.10;;;;;;;;;;10469842;28;20216;-82
2023/05/14 18:14:52;;;;;;;2.40;2.20;;;;;;;;;;10450393;28;20249;-81
2023/05/14 18:19:53;;;;;;;1.63;1.52;;;;;;;;;;10450318;28;21088;-81
2023/05/14 18:24:54;;;;;;;4.15;1.75;;;;;;;;;;10465702;28;20215;-81
2023/05/14 18:29:55;;;;;;;5.30;1.90;;;;;;;;;;10481113;28;20222;-80
2023/05/14 18:34:56;;;;;;;1.88;1.88;;;;;;;;;;10477225;28;20334;-80
2023/05/14 18:39:57;;;;;;;5.00;2.20;;;;;;;;;;10452792;28;20755;-78
2023/05/14 18:44:58;;;;;;;2.25;2.15;;;;;;;;;;10481313;28;20216;-80
2023/05/14 18:50:00;;;;;;;2.10;2.10;;;;;;;;;;10478128;28;20225;-80
2023/05/14 18:55:01;;;;;;;3.38;2.00;;;;;;;;;;10480986;28;20218;-80
2023/05/14 19:00:03;;;;;;;2.60;2.50;;;;;;;;;;10476124;28;20206;-80
2023/05/14 19:05:05;;;;;;;2.65;2.45;;;;;;;;;;10471623;28;20718;-79
2023/05/14 19:10:06;;;;;;;6.07;2.80;;;;;;;;;;10443978;28;20226;-78
2023/05/14 19:15:07;;;;;;;2.03;2.03;;;;;;;;;;10471827;28;20243;-79
2023/05/14 19:20:09;;;;;;;1.88;1.88;;;;;;;;;;10485685;28;20213;-79
2023/05/14 19:25:10;;;;;;;2.22;2.00;;;;;;;;;;10478420;28;20316;-78
2023/05/14 19:30:11;;;;;;;2.08;2.03;;;;;;;;;;10456761;28;20193;-80
2023/05/14 19:35:12;;;;;;;2.22;2.10;;;;;;;;;;10485128;28;20959;-79
2023/05/14 19:40:13;;;;;;;2.28;2.17;;;;;;;;;;10487982;28;20218;-79
2023/05/14 19:45:14;;;;;;;3.53;1.70;;;;;;;;;;10467894;28;20210;-78
2023/05/14 19:50:15;;;;;;;2.08;1.92;;;;;;;;;;10475473;28;20225;-78
2023/05/14 19:55:17;;;;;;;2.08;1.98;;;;;;;;;;10440927;28;20206;-76
2023/05/14 20:00:18;;;;;;;2.70;2.50;;;;;;;;;;10447244;28;20240;-77
2023/05/14 20:05:20;;;;;;;2.60;2.05;;;;;;;;;;10479228;28;20904;-78
2023/05/14 20:10:21;;;;;;;2.05;1.95;;;;;;;;;;10483132;28;20212;-77
2023/05/14 20:15:22;;;;;;;1.88;1.88;;;;;;;;;;10462073;28;20220;-79
2023/05/14 20:20:24;;;;;;;2.00;1.90;;;;;;;;;;10486986;28;21100;-78
2023/05/14 20:25:25;;;;;;;1.67;1.67;;;;;;;;;;10486310;28;20209;-76
2023/05/14 20:30:29;;;;;;;2.00;1.90;;;;;;;;;;10441286;28;20233;-74
2023/05/14 20:35:30;;;;;;;1.70;1.70;;;;;;;;;;10483330;28;20304;-77
2023/05/14 20:40:32;;;;;;;1.33;1.33;;;;;;;;;;10467869;28;20304;-78
2023/05/14 20:45:33;;;;;;;1.70;1.60;;;;;;;;;;10485510;28;20221;-78
2023/05/14 20:50:34;;;;;;;2.03;1.80;;;;;;;;;;10466106;28;20221;-77
2023/05/14 20:55:35;;;;;;;1.60;1.60;;;;;;;;;;10485980;28;20596;-78
2023/05/14 21:00:36;;;;;;;1.80;1.75;;;;;;;;;;10492889;28;20261;-80
2023/05/14 21:05:38;;;;;;;1.77;1.70;;;;;;;;;;10510822;28;20229;-77
2023/05/14 21:10:39;;;;;;;2.08;2.08;;;;;;;;;;10484281;28;20243;-77
2023/05/14 21:15:41;;;;;;;2.22;2.13;;;;;;;;;;10507021;28;20958;-78
2023/05/14 21:20:42;;;;;;;2.42;2.33;;;;;;;;;;10471106;28;20286;-79
2023/05/14 21:25:43;;;;;;;1.92;1.77;;;;;;;;;;10483058;28;21426;-77
2023/05/14 21:30:44;;;;;;;2.15;2.15;;;;;;;;;;10482633;28;20232;-79
2023/05/14 21:35:45;;;;;;;2.97;2.03;;;;;;;;;;10467666;28;20227;-80
2023/05/14 21:40:46;;;;;;;2.30;2.20;;;;;;;;;;10466766;28;20221;-80
2023/05/14 21:45:47;;;;;;;2.50;2.42;;;;;;;;;;10472190;28;20217;-79
2023/05/14 21:50:49;;;;;;;2.08;2.00;;;;;;;;;;10476634;28;20238;-78
2023/05/14 21:55:51;;;;;;;1.85;1.83;;;;;;;;;;10473726;28;20232;-78
2023/05/14 22:00:52;;;;;;;1.60;1.60;;;;;;;;;;10458134;28;20675;-79
2023/05/14 22:05:53;;;;;;;1.92;1.85;;;;;;;;;;10472769;28;20252;-78
2023/05/14 22:10:54;;;;;;;2.22;1.95;;;;;;;;;;10479549;28;20235;-79
2023/05/14 22:15:57;;;;;;;1.88;1.80;;;;;;;;;;10459202;28;20244;-79
2023/05/14 22:20:58;;;;;;;2.10;2.10;;;;;;;;;;10484408;28;20221;-78
2023/05/14 22:25:59;;;;;;;2.13;2.03;;;;;;;;;;10483262;28;20217;-79
2023/05/14 22:31:00;;;;;;;2.85;2.65;;;;;;;;;;10462581;28;20242;-79
2023/05/14 22:36:02;;;;;;;1.90;1.90;;;;;;;;;;10453504;28;20225;-78
2023/05/14 22:41:03;;;;;;;2.30;2.20;;;;;;;;;;10467038;28;20241;-78
2023/05/14 22:46:04;;;;;;;2.70;2.50;;;;;;;;;;10483162;28;21089;-78
2023/05/14 22:51:06;;;;;;;2.25;2.15;;;;;;;;;;10490136;28;20209;-78
2023/05/14 22:56:07;;;;;;;3.30;3.05;;;;;;;;;;10444949;28;20232;-80
2023/05/14 23:01:08;;;;;;;2.75;2.65;;;;;;;;;;10474342;28;20221;-78
2023/05/14 23:06:12;;;;;;;3.45;3.25;;;;;;;;;;10458189;28;20267;-79
2023/05/14 23:11:14;;;;;;;4.10;3.50;;;;;;;;;;10470628;28;20294;-78
2023/05/14 23:16:15;;;;;;;6.47;3.28;;;;;;;;;;10480630;28;20225;-77
2023/05/14 23:21:16;;;;;;;2.83;2.72;;;;;;;;;;10470966;28;20320;-80
2023/05/14 23:26:17;;;;;;;3.63;3.42;;;;;;;;;;10489231;28;20354;-78
2023/05/14 23:31:18;;;;;;;3.55;3.45;;;;;;;;;;10435976;28;20241;-79
2023/05/14 23:36:19;;;;;;;3.97;3.67;;;;;;;;;;10471717;28;20248;-75
2023/05/14 23:41:20;;;;;;;5.30;3.65;;;;;;;;;;10484717;28;20217;-76
2023/05/14 23:46:21;;;;;;;3.45;3.25;;;;;;;;;;10472710;28;20629;-78
2023/05/14 23:51:23;;;;;;;3.90;3.70;;;;;;;;;;10451147;28;20206;-77
2023/05/14 23:56:26;;;;;;;4.10;3.90;;;;;;;;;;10472438;28;20637;-76
